createdAt,value
2018-03-22T00:00:13.088Z,-2.42
2018-03-22T00:01:13.048Z,-2.39
2018-03-22T00:02:13.286Z,-2.42
2018-03-22T00:03:13.267Z,-2.36
2018-03-22T00:04:12.987Z,-2.42
2018-03-22T00:05:13.235Z,-2.46
2018-03-22T00:06:13.209Z,-2.53
2018-03-22T00:07:12.927Z,-2.43
2018-03-22T00:08:13.169Z,-2.47
2018-03-22T00:09:12.891Z,-2.5
2018-03-22T00:10:13.125Z,-2.47
2018-03-22T00:11:12.848Z,-2.44
2018-03-22T00:12:13.135Z,-2.47
2018-03-22T00:13:12.827Z,-2.49
2018-03-22T00:14:13.048Z,-2.47
2018-03-22T00:15:13.027Z,-2.46
2018-03-22T00:16:12.751Z,-2.5
2018-03-22T00:17:13.004Z,-2.6
2018-03-22T00:18:12.708Z,-2.54
2018-03-22T00:19:12.946Z,-2.46
2018-03-22T00:20:12.928Z,-2.49
2018-03-22T00:21:12.908Z,-2.49
2018-03-22T00:22:12.367Z,-2.54
2018-03-22T00:23:12.608Z,-2.54
2018-03-22T00:24:12.856Z,-2.53
2018-03-22T00:25:12.830Z,-2.5
2018-03-22T00:26:12.816Z,-2.44
2018-03-22T00:27:12.801Z,-2.46
2018-03-22T00:28:12.562Z,-2.46
2018-03-22T00:29:12.755Z,-2.54
2018-03-22T00:30:12.729Z,-2.5
2018-03-22T00:31:12.449Z,-2.42
2018-03-22T00:32:12.429Z,-2.53
2018-03-22T00:33:12.409Z,-2.4
2018-03-22T00:34:12.381Z,-2.34
2018-03-22T00:35:12.359Z,-2.36
2018-03-22T00:36:12.334Z,-2.34
2018-03-22T00:37:12.315Z,-2.4
2018-03-22T00:38:12.556Z,-2.36
2018-03-22T00:39:12.044Z,-2.39
2018-03-22T00:40:12.254Z,-2.46
2018-03-22T00:41:12.497Z,-2.39
2018-03-22T00:42:12.477Z,-2.39
2018-03-22T00:43:12.194Z,-2.37
2018-03-22T00:44:12.176Z,-2.42
2018-03-22T00:45:12.413Z,-2.44
2018-03-22T00:46:12.393Z,-2.44
2018-03-22T00:47:12.379Z,-2.3
2018-03-22T00:48:12.357Z,-2.4
2018-03-22T00:49:12.342Z,-2.36
2018-03-22T00:50:12.322Z,-2.36
2018-03-22T00:51:12.037Z,-2.4
2018-03-22T00:52:12.273Z,-2.36
2018-03-22T00:53:12.257Z,-2.34
2018-03-22T00:54:11.991Z,-2.49
2018-03-22T00:55:11.958Z,-2.46
2018-03-22T00:56:12.196Z,-2.42
2018-03-22T00:57:11.919Z,-2.39
2018-03-22T00:58:12.154Z,-2.53
2018-03-22T00:59:12.134Z,-2.49
2018-03-22T01:00:11.858Z,-2.5
2018-03-22T01:01:11.583Z,-2.5
2018-03-22T01:02:12.074Z,-2.55
2018-03-22T01:03:12.060Z,-2.46
2018-03-22T01:04:11.776Z,-2.53
2018-03-22T01:05:11.756Z,-2.53
2018-03-22T01:06:11.994Z,-2.39
2018-03-22T01:07:11.980Z,-2.36
2018-03-22T01:08:11.957Z,-2.36
2018-03-22T01:09:11.681Z,-2.39
2018-03-22T01:10:11.657Z,-2.37
2018-03-22T01:11:11.895Z,-2.4
2018-03-22T01:12:11.882Z,-2.4
2018-03-22T01:13:11.602Z,-2.32
2018-03-22T01:14:11.833Z,-2.4
2018-03-22T01:15:11.556Z,-2.39
2018-03-22T01:16:11.537Z,-2.27
2018-03-22T01:17:11.519Z,-2.42
2018-03-22T01:18:11.760Z,-2.44
2018-03-22T01:19:11.784Z,-2.39
2018-03-22T01:20:11.715Z,-2.44
2018-03-22T01:21:11.438Z,-2.43
2018-03-22T01:22:11.689Z,-2.34
2018-03-22T01:23:11.396Z,-2.42
2018-03-22T01:24:11.376Z,-2.44
2018-03-22T01:25:11.617Z,-2.39
2018-03-22T01:26:11.336Z,-2.34
2018-03-22T01:27:11.574Z,-2.37
2018-03-22T01:28:11.560Z,-2.34
2018-03-22T01:29:11.278Z,-2.39
2018-03-22T01:30:11.258Z,-2.47
2018-03-22T01:31:11.237Z,-2.53
2018-03-22T01:32:11.479Z,-2.4
2018-03-22T01:33:10.940Z,-2.47
2018-03-22T01:34:11.435Z,-2.46
2018-03-22T01:35:11.415Z,-2.47
2018-03-22T01:36:11.402Z,-2.47
2018-03-22T01:37:11.382Z,-2.49
2018-03-22T01:38:11.361Z,-2.46
2018-03-22T01:39:11.337Z,-2.47
2018-03-22T01:40:11.059Z,-2.43
2018-03-22T01:41:11.037Z,-2.57
2018-03-22T01:42:11.270Z,-2.6
2018-03-22T01:43:10.999Z,-2.6
2018-03-22T01:44:11.237Z,-2.67
2018-03-22T01:45:11.214Z,-2.67
2018-03-22T01:46:11.194Z,-2.67
2018-03-22T01:47:11.182Z,-2.61
2018-03-22T01:48:11.154Z,-2.61
2018-03-22T01:49:11.149Z,-2.61
2018-03-22T01:50:10.866Z,-2.57
2018-03-22T01:51:10.840Z,-2.62
2018-03-22T01:52:10.815Z,-2.58
2018-03-22T01:53:11.054Z,-2.6
2018-03-22T01:54:10.778Z,-2.65
2018-03-22T01:55:10.499Z,-2.72
2018-03-22T01:56:11.000Z,-2.75
2018-03-22T01:57:10.714Z,-2.72
2018-03-22T01:58:10.699Z,-2.76
2018-03-22T01:59:10.674Z,-2.82
2018-03-22T02:00:10.915Z,-2.82
2018-03-22T02:01:10.635Z,-2.82
2018-03-22T02:02:10.357Z,-2.91
2018-03-22T02:03:10.854Z,-2.94
2018-03-22T02:04:10.318Z,-2.86
2018-03-22T02:05:10.297Z,-2.88
2018-03-22T02:06:10.537Z,-2.96
2018-03-22T02:07:10.515Z,-2.96
2018-03-22T02:08:10.496Z,-2.88
2018-03-22T02:09:10.733Z,-3
2018-03-22T02:10:10.567Z,-2.88
2018-03-22T02:11:10.439Z,-2.86
2018-03-22T02:12:10.674Z,-2.86
2018-03-22T02:13:10.652Z,-2.86
2018-03-22T02:14:10.634Z,-2.86
2018-03-22T02:15:10.361Z,-2.9
2018-03-22T02:16:10.338Z,-2.86
2018-03-22T02:17:10.316Z,-2.88
2018-03-22T02:18:10.304Z,-2.97
2018-03-22T02:19:10.533Z,-2.97
2018-03-22T02:20:10.512Z,-2.94
2018-03-22T02:21:10.234Z,-2.93
2018-03-22T02:22:10.215Z,-2.9
2018-03-22T02:23:10.194Z,-2.88
2018-03-22T02:24:10.430Z,-2.85
2018-03-22T02:25:10.154Z,-2.83
2018-03-22T02:26:10.393Z,-2.86
2018-03-22T02:27:10.371Z,-2.82
2018-03-22T02:28:09.835Z,-2.83
2018-03-22T02:29:10.072Z,-2.79
2018-03-22T02:30:10.062Z,-2.85
2018-03-22T02:31:09.776Z,-2.85
2018-03-22T02:32:09.755Z,-2.82
2018-03-22T02:33:10.254Z,-2.83
2018-03-22T02:34:10.240Z,-2.82
2018-03-22T02:35:10.217Z,-2.86
2018-03-22T02:36:10.194Z,-2.75
2018-03-22T02:37:09.933Z,-2.82
2018-03-22T02:38:09.896Z,-2.78
2018-03-22T02:39:10.134Z,-2.76
2018-03-22T02:40:09.853Z,-2.68
2018-03-22T02:41:09.577Z,-2.76
2018-03-22T02:42:09.824Z,-2.76
2018-03-22T02:43:10.050Z,-2.72
2018-03-22T02:44:09.772Z,-2.68
2018-03-22T02:45:09.754Z,-2.64
2018-03-22T02:46:09.470Z,-2.75
2018-03-22T02:47:09.973Z,-2.65
2018-03-22T02:48:09.954Z,-2.73
2018-03-22T02:49:09.933Z,-2.76
2018-03-22T02:50:09.652Z,-2.72
2018-03-22T02:51:10.036Z,-2.75
2018-03-22T02:52:09.609Z,-2.67
2018-03-22T02:53:09.588Z,-2.67
2018-03-22T02:54:09.635Z,-2.81
2018-03-22T02:55:09.557Z,-2.75
2018-03-22T02:56:09.814Z,-2.65
2018-03-22T02:57:09.795Z,-2.79
2018-03-22T02:58:09.749Z,-2.62
2018-03-22T02:59:09.474Z,-2.68
2018-03-22T03:00:09.718Z,-2.64
2018-03-22T03:01:09.694Z,-2.58
2018-03-22T03:02:09.690Z,-2.64
2018-03-22T03:03:09.666Z,-2.53
2018-03-22T03:04:09.383Z,-2.62
2018-03-22T03:05:09.348Z,-2.6
2018-03-22T03:06:09.588Z,-2.58
2018-03-22T03:07:09.563Z,-2.64
2018-03-22T03:08:09.288Z,-2.61
2018-03-22T03:09:09.263Z,-2.58
2018-03-22T03:10:09.501Z,-2.55
2018-03-22T03:11:09.229Z,-2.6
2018-03-22T03:12:09.203Z,-2.64
2018-03-22T03:13:09.185Z,-2.57
2018-03-22T03:14:09.165Z,-2.6
2018-03-22T03:15:09.404Z,-2.5
2018-03-22T03:16:09.126Z,-2.61
2018-03-22T03:17:09.112Z,-2.5
2018-03-22T03:18:09.344Z,-2.5
2018-03-22T03:19:09.323Z,-2.43
2018-03-22T03:20:09.045Z,-2.42
2018-03-22T03:21:09.283Z,-2.42
2018-03-22T03:22:09.261Z,-2.4
2018-03-22T03:23:08.983Z,-2.34
2018-03-22T03:24:09.228Z,-2.36
2018-03-22T03:25:08.947Z,-2.37
2018-03-22T03:26:09.183Z,-2.43
2018-03-22T03:27:09.161Z,-2.42
2018-03-22T03:28:09.140Z,-2.4
2018-03-22T03:29:08.863Z,-2.32
2018-03-22T03:30:09.130Z,-2.37
2018-03-22T03:31:09.093Z,-2.4
2018-03-22T03:32:08.802Z,-2.27
2018-03-22T03:33:08.784Z,-2.21
2018-03-22T03:34:08.761Z,-2.21
2018-03-22T03:35:09.005Z,-2.28
2018-03-22T03:36:08.465Z,-2.24
2018-03-22T03:37:08.703Z,-2.28
2018-03-22T03:38:08.682Z,-2.25
2018-03-22T03:39:08.920Z,-2.25
2018-03-22T03:40:08.384Z,-2.24
2018-03-22T03:41:08.879Z,-2.24
2018-03-22T03:42:08.929Z,-2.2
2018-03-22T03:43:08.841Z,-2.24
2018-03-22T03:44:08.819Z,-2.21
2018-03-22T03:45:08.798Z,-2.24
2018-03-22T03:46:08.526Z,-2.21
2018-03-22T03:47:08.766Z,-2.24
2018-03-22T03:48:08.487Z,-2.24
2018-03-22T03:49:08.719Z,-2.28
2018-03-22T03:50:08.440Z,-2.24
2018-03-22T03:51:08.690Z,-2.27
2018-03-22T03:52:08.659Z,-2.23
2018-03-22T03:53:08.386Z,-2.28
2018-03-22T03:54:08.363Z,-2.27
2018-03-22T03:55:08.344Z,-2.23
2018-03-22T03:56:08.334Z,-2.27
2018-03-22T03:57:08.303Z,-2.27
2018-03-22T03:58:08.284Z,-2.24
2018-03-22T03:59:08.264Z,-2.27
2018-03-22T04:00:08.506Z,-2.25
2018-03-22T04:01:08.224Z,-2.27
2018-03-22T04:02:07.947Z,-2.25
2018-03-22T04:03:08.449Z,-2.34
2018-03-22T04:04:08.168Z,-2.36
2018-03-22T04:05:08.406Z,-2.4
2018-03-22T04:06:08.388Z,-2.37
2018-03-22T04:07:08.110Z,-2.4
2018-03-22T04:08:08.085Z,-2.4
2018-03-22T04:09:08.323Z,-2.39
2018-03-22T04:10:08.045Z,-2.36
2018-03-22T04:11:08.034Z,-2.42
2018-03-22T04:12:08.016Z,-2.39
2018-03-22T04:13:07.986Z,-2.39
2018-03-22T04:14:08.226Z,-2.34
2018-03-22T04:15:07.952Z,-2.36
2018-03-22T04:16:07.667Z,-2.39
2018-03-22T04:17:07.911Z,-2.39
2018-03-22T04:18:07.627Z,-2.4
2018-03-22T04:19:08.125Z,-2.34
2018-03-22T04:20:08.106Z,-2.5
2018-03-22T04:21:08.088Z,-2.4
2018-03-22T04:22:07.805Z,-2.43
2018-03-22T04:23:07.786Z,-2.5
2018-03-22T04:24:07.765Z,-2.39
2018-03-22T04:25:07.487Z,-2.5
2018-03-22T04:26:07.727Z,-2.4
2018-03-22T04:27:07.705Z,-2.39
2018-03-22T04:28:07.951Z,-2.39
2018-03-22T04:29:07.410Z,-2.34
2018-03-22T04:30:07.905Z,-2.39
2018-03-22T04:31:07.625Z,-2.34
2018-03-22T04:32:07.868Z,-2.4
2018-03-22T04:33:07.589Z,-2.39
2018-03-22T04:34:07.831Z,-2.47
2018-03-22T04:35:07.288Z,-2.43
2018-03-22T04:36:07.266Z,-2.53
2018-03-22T04:37:07.505Z,-2.5
2018-03-22T04:38:07.748Z,-2.5
2018-03-22T04:39:07.723Z,-2.53
2018-03-22T04:40:07.443Z,-2.54
2018-03-22T04:41:07.687Z,-2.58
2018-03-22T04:42:07.147Z,-2.53
2018-03-22T04:43:07.399Z,-2.53
2018-03-22T04:44:07.366Z,-2.58
2018-03-22T04:45:07.352Z,-2.54
2018-03-22T04:46:07.586Z,-2.5
2018-03-22T04:47:07.563Z,-2.47
2018-03-22T04:48:07.548Z,-2.53
2018-03-22T04:49:07.522Z,-2.4
2018-03-22T04:50:06.986Z,-2.43
2018-03-22T04:51:06.964Z,-2.49
2018-03-22T04:52:07.465Z,-2.39
2018-03-22T04:53:07.182Z,-2.47
2018-03-22T04:54:07.162Z,-2.49
2018-03-22T04:55:07.146Z,-2.4
2018-03-22T04:56:07.126Z,-2.55
2018-03-22T04:57:07.370Z,-2.39
2018-03-22T04:58:07.353Z,-2.53
2018-03-22T04:59:07.331Z,-2.43
2018-03-22T05:00:07.043Z,-2.4
2018-03-22T05:01:07.027Z,-2.37
2018-03-22T05:02:07.007Z,-2.4
2018-03-22T05:03:06.724Z,-2.34
2018-03-22T05:04:06.967Z,-2.39
2018-03-22T05:05:06.942Z,-2.34
2018-03-22T05:06:07.178Z,-2.34
2018-03-22T05:07:07.163Z,-2.44
2018-03-22T05:08:06.885Z,-2.39
2018-03-22T05:09:06.863Z,-2.34
2018-03-22T05:10:06.848Z,-2.27
2018-03-22T05:11:06.821Z,-2.34
2018-03-22T05:12:06.802Z,-2.34
2018-03-22T05:13:06.780Z,-2.4
2018-03-22T05:14:07.017Z,-2.27
2018-03-22T05:15:07.003Z,-2.43
2018-03-22T05:16:06.981Z,-2.42
2018-03-22T05:17:06.963Z,-2.25
2018-03-22T05:18:06.940Z,-2.34
2018-03-22T05:19:06.670Z,-2.4
2018-03-22T05:20:06.898Z,-2.27
2018-03-22T05:21:06.883Z,-2.25
2018-03-22T05:22:06.858Z,-2.39
2018-03-22T05:23:06.839Z,-2.34
2018-03-22T05:24:06.302Z,-2.21
2018-03-22T05:25:06.958Z,-2.3
2018-03-22T05:26:06.519Z,-2.25
2018-03-22T05:27:06.500Z,-2.25
2018-03-22T05:28:06.480Z,-2.2
2018-03-22T05:29:06.469Z,-2.21
2018-03-22T05:30:06.703Z,-2.17
2018-03-22T05:31:06.683Z,-2.18
2018-03-22T05:32:06.399Z,-2.21
2018-03-22T05:33:06.645Z,-2.12
2018-03-22T05:34:06.623Z,-2.17
2018-03-22T05:35:06.603Z,-2.12
2018-03-22T05:36:06.582Z,-2.07
2018-03-22T05:37:06.560Z,-2.1
2018-03-22T05:38:06.568Z,-2.03
2018-03-22T05:39:06.517Z,-2.07
2018-03-22T05:40:06.505Z,-1.96
2018-03-22T05:41:05.962Z,-2.03
2018-03-22T05:42:06.463Z,-1.99
2018-03-22T05:43:05.925Z,-1.99
2018-03-22T05:44:06.421Z,-1.88
2018-03-22T05:45:06.140Z,-1.94
2018-03-22T05:46:06.379Z,-1.97
2018-03-22T05:47:06.362Z,-1.85
2018-03-22T05:48:06.084Z,-1.89
2018-03-22T05:49:06.320Z,-1.74
2018-03-22T05:50:06.300Z,-1.7
2018-03-22T05:51:06.292Z,-1.55
2018-03-22T05:52:06.262Z,-1.67
2018-03-22T05:53:05.986Z,-1.55
2018-03-22T05:54:06.221Z,-1.52
2018-03-22T05:55:05.944Z,-1.46
2018-03-22T05:56:06.184Z,-1.4
2018-03-22T05:57:05.903Z,-1.38
2018-03-22T05:58:05.948Z,-1.38
2018-03-22T05:59:05.870Z,-1.19
2018-03-22T06:00:06.109Z,-1.22
2018-03-22T06:01:06.087Z,-1.21
2018-03-22T06:02:06.066Z,-1.22
2018-03-22T06:03:05.858Z,-1.1
2018-03-22T06:04:05.767Z,-1.06
2018-03-22T06:05:05.495Z,-1.04
2018-03-22T06:06:05.994Z,-1.06
2018-03-22T06:07:05.715Z,-0.99
2018-03-22T06:08:05.960Z,-1.04
2018-03-22T06:09:05.938Z,-0.93
2018-03-22T06:10:05.661Z,-1.09
2018-03-22T06:11:05.897Z,-1.1
2018-03-22T06:12:05.932Z,-1.06
2018-03-22T06:13:05.857Z,-1.16
2018-03-22T06:14:05.835Z,-1.09
2018-03-22T06:15:05.556Z,-1.16
2018-03-22T06:16:05.797Z,-1.11
2018-03-22T06:17:05.790Z,-1.24
2018-03-22T06:18:05.500Z,-1.24
2018-03-22T06:19:05.745Z,-1.21
2018-03-22T06:20:05.718Z,-1.1
2018-03-22T06:21:05.707Z,-1.13
2018-03-22T06:22:05.688Z,-1.16
2018-03-22T06:23:05.404Z,-1.01
2018-03-22T06:24:05.393Z,-0.99
2018-03-22T06:25:05.638Z,-1.03
2018-03-22T06:26:05.612Z,-0.95
2018-03-22T06:27:05.326Z,-0.95
2018-03-22T06:28:05.575Z,-0.89
2018-03-22T06:29:05.556Z,-0.84
2018-03-22T06:30:05.272Z,-0.85
2018-03-22T06:31:05.258Z,-0.85
2018-03-22T06:32:05.491Z,-0.89
2018-03-22T06:33:05.471Z,-0.84
2018-03-22T06:34:04.936Z,-0.89
2018-03-22T06:35:05.176Z,-0.85
2018-03-22T06:36:05.155Z,-0.92
2018-03-22T06:37:05.399Z,-0.98
2018-03-22T06:38:05.376Z,-0.96
2018-03-22T06:39:05.363Z,-0.96
2018-03-22T06:40:05.385Z,-0.87
2018-03-22T06:41:05.323Z,-0.85
2018-03-22T06:42:05.049Z,-0.8
2018-03-22T06:43:05.033Z,-0.84
2018-03-22T06:44:05.264Z,-0.76
2018-03-22T06:45:04.991Z,-0.74
2018-03-22T06:46:05.229Z,-0.62
2018-03-22T06:47:04.948Z,-0.64
2018-03-22T06:48:05.188Z,-0.69
2018-03-22T06:49:05.176Z,-0.64
2018-03-22T06:50:04.892Z,-0.62
2018-03-22T06:51:04.615Z,-0.61
2018-03-22T06:52:05.112Z,-0.67
2018-03-22T06:53:05.109Z,-0.59
2018-03-22T06:54:04.819Z,-0.49
2018-03-22T06:55:05.058Z,-0.41
2018-03-22T06:56:05.038Z,-0.38
2018-03-22T06:57:05.099Z,-0.46
2018-03-22T06:58:05.005Z,-0.49
2018-03-22T06:59:04.722Z,-0.52
2018-03-22T07:00:04.962Z,-0.49
2018-03-22T07:01:04.685Z,-0.34
2018-03-22T07:02:04.408Z,-0.31
2018-03-22T07:03:04.649Z,-0.34
2018-03-22T07:04:04.887Z,-0.27
2018-03-22T07:05:04.884Z,-0.25
2018-03-22T07:06:04.593Z,-0.2
2018-03-22T07:07:04.844Z,-0.28
2018-03-22T07:08:04.815Z,-0.15
2018-03-22T07:09:04.803Z,-0.09
2018-03-22T07:10:04.260Z,0.01
2018-03-22T07:11:04.760Z,-0.01
2018-03-22T07:12:04.485Z,0.02
2018-03-22T07:13:04.721Z,0.08
2018-03-22T07:14:04.186Z,0.09
2018-03-22T07:15:04.428Z,0.17
2018-03-22T07:16:04.678Z,0.26
2018-03-22T07:17:04.647Z,0.26
2018-03-22T07:18:04.632Z,0.37
2018-03-22T07:19:04.356Z,0.31
2018-03-22T07:20:04.077Z,0.28
2018-03-22T07:21:04.060Z,0.34
2018-03-22T07:22:04.557Z,0.27
2018-03-22T07:23:04.281Z,0.37
2018-03-22T07:24:04.264Z,0.31
2018-03-22T07:25:04.503Z,0.26
2018-03-22T07:26:04.526Z,0.21
2018-03-22T07:27:04.469Z,0.26
2018-03-22T07:28:04.191Z,0.17
2018-03-22T07:29:04.174Z,0.19
2018-03-22T07:30:04.426Z,0.21
2018-03-22T07:31:04.138Z,0.14
2018-03-22T07:32:04.121Z,0.23
2018-03-22T07:33:04.100Z,0.19
2018-03-22T07:34:04.106Z,0.14
2018-03-22T07:35:04.323Z,0.13
2018-03-22T07:36:04.305Z,0.17
2018-03-22T07:37:03.772Z,0.16
2018-03-22T07:38:04.270Z,0.13
2018-03-22T07:39:03.998Z,0.17
2018-03-22T07:40:03.976Z,0.1
2018-03-22T07:41:04.224Z,0.02
2018-03-22T07:42:04.223Z,0.01
2018-03-22T07:43:04.178Z,-0.15
2018-03-22T07:44:03.901Z,-0.27
2018-03-22T07:45:03.649Z,-0.3
2018-03-22T07:46:03.865Z,-0.36
2018-03-22T07:47:03.851Z,-0.33
2018-03-22T07:48:03.571Z,-0.36
2018-03-22T07:49:04.069Z,-0.31
2018-03-22T07:50:03.793Z,-0.25
2018-03-22T07:51:03.781Z,-0.23
2018-03-22T07:52:04.018Z,-0.09
2018-03-22T07:53:03.742Z,-0.09
2018-03-22T07:54:03.733Z,0.02
2018-03-22T07:55:03.701Z,-0.01
2018-03-22T07:56:03.956Z,0.09
2018-03-22T07:57:03.934Z,0.26
2018-03-22T07:58:03.389Z,0.37
2018-03-22T07:59:03.996Z,0.5
2018-03-22T08:00:03.353Z,0.75
2018-03-22T08:01:03.851Z,0.9
2018-03-22T08:02:03.838Z,1.1
2018-03-22T08:03:03.557Z,1.2
2018-03-22T08:04:03.798Z,1.15
2018-03-22T08:05:03.523Z,1.39
2018-03-22T08:06:03.537Z,1.46
2018-03-22T08:07:03.750Z,1.51
2018-03-22T08:08:03.473Z,1.57
2018-03-22T08:09:03.454Z,1.6
2018-03-22T08:10:03.703Z,1.65
2018-03-22T08:11:03.417Z,1.72
2018-03-22T08:12:03.401Z,1.9
2018-03-22T08:13:03.641Z,1.94
2018-03-22T08:14:03.374Z,2.05
2018-03-22T08:15:03.356Z,2.06
2018-03-22T08:16:03.593Z,2.2
2018-03-22T08:17:03.575Z,2.22
2018-03-22T08:18:03.301Z,2.12
2018-03-22T08:19:03.286Z,2.05
2018-03-22T08:20:03.527Z,1.86
2018-03-22T08:21:03.251Z,1.89
2018-03-22T08:22:03.490Z,1.69
2018-03-22T08:23:03.219Z,1.57
2018-03-22T08:24:03.494Z,1.46
2018-03-22T08:25:02.925Z,1.39
2018-03-22T08:26:03.435Z,1.38
2018-03-22T08:27:03.407Z,1.32
2018-03-22T08:28:03.396Z,1.22
2018-03-22T08:29:02.865Z,1.29
2018-03-22T08:30:03.099Z,1.21
2018-03-22T08:31:03.340Z,1.2
2018-03-22T08:32:03.067Z,1.18
2018-03-22T08:33:02.794Z,1.2
2018-03-22T08:34:03.299Z,1.14
2018-03-22T08:35:03.386Z,1.18
2018-03-22T08:36:03.001Z,1.11
2018-03-22T08:37:02.989Z,1.12
2018-03-22T08:38:02.968Z,1.1
2018-03-22T08:39:02.957Z,1.1
2018-03-22T08:40:03.200Z,1.08
2018-03-22T08:41:02.913Z,1.03
2018-03-22T08:42:02.899Z,1.08
2018-03-22T08:43:03.144Z,1.07
2018-03-22T08:44:03.121Z,1.12
2018-03-22T08:45:02.857Z,1.1
2018-03-22T08:46:03.105Z,1.14
2018-03-22T08:47:03.078Z,1.14
2018-03-22T08:48:02.800Z,1.18
2018-03-22T08:49:03.046Z,1.07
2018-03-22T08:50:03.029Z,1.11
2018-03-22T08:51:02.745Z,1.02
2018-03-22T08:52:02.992Z,1.1
2018-03-22T08:53:02.971Z,1.11
2018-03-22T08:54:02.960Z,1.03
2018-03-22T08:55:02.680Z,1.14
2018-03-22T08:56:02.659Z,1.08
2018-03-22T08:57:02.907Z,1.21
2018-03-22T08:58:02.882Z,1.22
2018-03-22T08:59:02.876Z,1.17
2018-03-22T09:00:02.598Z,1.15
2018-03-22T09:01:02.832Z,1.14
2018-03-22T09:02:02.559Z,1.11
2018-03-22T09:03:02.548Z,1.07
2018-03-22T09:04:02.266Z,1.04
2018-03-22T09:05:02.511Z,1.12
2018-03-22T09:06:02.491Z,1.18
2018-03-22T09:07:02.729Z,1.35
2018-03-22T09:08:02.714Z,1.32
2018-03-22T09:09:02.181Z,1.46
2018-03-22T09:10:02.165Z,1.38
2018-03-22T09:11:02.662Z,1.33
2018-03-22T09:12:02.734Z,1.48
2018-03-22T09:13:02.380Z,1.46
2018-03-22T09:14:02.612Z,1.48
2018-03-22T09:15:02.596Z,1.57
2018-03-22T09:16:02.591Z,1.64
2018-03-22T09:17:02.563Z,1.65
2018-03-22T09:18:02.288Z,1.71
2018-03-22T09:19:02.539Z,1.72
2018-03-22T09:20:02.510Z,1.86
2018-03-22T09:21:02.496Z,1.89
2018-03-22T09:22:02.234Z,2.01
2018-03-22T09:23:02.201Z,2.11
2018-03-22T09:24:02.186Z,2.06
2018-03-22T09:25:01.911Z,2.08
2018-03-22T09:26:02.153Z,2.09
2018-03-22T09:27:02.399Z,1.94
2018-03-22T09:28:02.380Z,1.78
2018-03-22T09:29:02.112Z,1.78
2018-03-22T09:30:02.349Z,1.74
2018-03-22T09:31:02.332Z,1.76
2018-03-22T09:32:02.054Z,1.79
2018-03-22T09:33:02.295Z,1.78
2018-03-22T09:34:02.024Z,1.68
2018-03-22T09:35:02.005Z,1.68
2018-03-22T09:36:02.246Z,1.57
2018-03-22T09:37:01.973Z,1.46
2018-03-22T09:38:01.958Z,1.56
2018-03-22T09:39:01.938Z,1.47
2018-03-22T09:40:02.180Z,1.6
2018-03-22T09:41:02.163Z,1.61
2018-03-22T09:42:02.162Z,1.61
2018-03-22T09:43:02.129Z,1.56
2018-03-22T09:44:01.855Z,1.54
2018-03-22T09:45:01.838Z,1.48
2018-03-22T09:46:01.827Z,1.58
2018-03-22T09:47:02.067Z,1.53
2018-03-22T09:48:01.789Z,1.42
2018-03-22T09:49:02.035Z,1.18
2018-03-22T09:50:02.014Z,1.24
2018-03-22T09:51:01.996Z,1.28
2018-03-22T09:52:01.979Z,1.2
2018-03-22T09:53:01.967Z,1.15
2018-03-22T09:54:01.690Z,1.15
2018-03-22T09:55:01.672Z,1.15
2018-03-22T09:56:01.917Z,1.15
2018-03-22T09:57:02.019Z,1.07
2018-03-22T09:58:01.885Z,1.04
2018-03-22T09:59:01.871Z,1.11
2018-03-22T10:00:01.587Z,1.04
2018-03-22T10:01:01.575Z,1.15
2018-03-22T10:02:01.557Z,1.03
2018-03-22T10:03:01.807Z,1.03
2018-03-22T10:04:01.779Z,1
2018-03-22T10:05:01.760Z,0.97
2018-03-22T10:06:01.489Z,1.03
2018-03-22T10:07:01.468Z,1.03
2018-03-22T10:08:01.710Z,0.97
2018-03-22T10:09:01.693Z,0.96
2018-03-22T10:10:01.680Z,1.03
2018-03-22T10:11:01.143Z,1.14
2018-03-22T10:12:01.655Z,1.08
2018-03-22T10:13:01.636Z,1.12
2018-03-22T10:14:01.367Z,1.12
2018-03-22T10:15:01.590Z,1.12
2018-03-22T10:16:01.057Z,1.17
2018-03-22T10:17:01.302Z,1.17
2018-03-22T10:18:01.281Z,1.21
2018-03-22T10:19:01.265Z,1.24
2018-03-22T10:20:01.505Z,1.17
2018-03-22T10:21:01.231Z,1.15
2018-03-22T10:22:01.471Z,1.02
2018-03-22T10:23:01.195Z,1.14
2018-03-22T10:24:01.439Z,1.28
2018-03-22T10:25:01.422Z,1.18
2018-03-22T10:26:01.409Z,1.4
2018-03-22T10:27:01.134Z,1.39
2018-03-22T10:28:01.111Z,1.47
2018-03-22T10:29:01.356Z,1.47
2018-03-22T10:30:01.077Z,1.57
2018-03-22T10:31:01.060Z,1.51
2018-03-22T10:32:01.307Z,1.76
2018-03-22T10:33:01.026Z,1.76
2018-03-22T10:34:01.266Z,1.69
2018-03-22T10:35:00.734Z,1.54
2018-03-22T10:36:01.349Z,1.5
2018-03-22T10:37:01.219Z,1.48
2018-03-22T10:38:00.682Z,1.53
2018-03-22T10:39:00.666Z,1.51
2018-03-22T10:40:01.172Z,1.44
2018-03-22T10:41:01.155Z,1.51
2018-03-22T10:42:01.245Z,1.47
2018-03-22T10:43:01.115Z,1.5
2018-03-22T10:44:00.846Z,1.46
2018-03-22T10:45:01.094Z,1.44
2018-03-22T10:46:00.806Z,1.56
2018-03-22T10:47:01.053Z,1.76
2018-03-22T10:48:01.031Z,1.72
2018-03-22T10:49:01.016Z,1.74
2018-03-22T10:50:01.000Z,1.75
2018-03-22T10:51:00.724Z,1.72
2018-03-22T10:52:00.449Z,1.72
2018-03-22T10:53:00.696Z,1.75
2018-03-22T10:54:01.025Z,1.71
2018-03-22T10:55:00.657Z,1.71
2018-03-22T10:56:00.898Z,1.69
2018-03-22T10:57:00.881Z,1.65
2018-03-22T10:58:00.865Z,1.58
2018-03-22T10:59:00.856Z,1.56
2018-03-22T11:00:00.840Z,1.54
2018-03-22T11:01:00.820Z,1.56
2018-03-22T11:02:00.809Z,1.4
2018-03-22T11:03:00.524Z,1.4
2018-03-22T11:04:00.507Z,1.44
2018-03-22T11:05:00.491Z,1.48
2018-03-22T11:06:00.732Z,1.51
2018-03-22T11:07:00.719Z,1.44
2018-03-22T11:08:00.183Z,1.48
2018-03-22T11:09:00.174Z,1.6
2018-03-22T11:10:00.422Z,1.68
2018-03-22T11:11:00.647Z,1.66
2018-03-22T11:12:00.374Z,1.54
2018-03-22T11:13:00.359Z,1.64
2018-03-22T11:14:00.602Z,1.75
2018-03-22T11:15:00.330Z,1.9
2018-03-22T11:16:00.565Z,1.86
2018-03-22T11:17:00.290Z,2.02
2018-03-22T11:18:00.274Z,2.12
2018-03-22T11:19:00.000Z,2.12
2018-03-22T11:20:00.241Z,2.22
2018-03-22T11:21:00.225Z,2.18
2018-03-22T11:21:59.951Z,2.26
2018-03-22T11:23:00.191Z,2.33
2018-03-22T11:24:00.175Z,2.45
2018-03-22T11:25:00.160Z,2.38
2018-03-22T11:26:00.404Z,2.36
2018-03-22T11:27:00.386Z,2.36
2018-03-22T11:28:00.112Z,2.23
2018-03-22T11:29:00.353Z,2.13
2018-03-22T11:30:00.082Z,2.15
2018-03-22T11:31:00.318Z,2.13
2018-03-22T11:32:00.301Z,2.12
2018-03-22T11:33:00.028Z,2.23
2018-03-22T11:34:00.013Z,2.2
2018-03-22T11:34:59.739Z,2.15
2018-03-22T11:36:00.238Z,2.29
2018-03-22T11:37:00.233Z,2.3
2018-03-22T11:37:59.690Z,2.31
2018-03-22T11:39:00.189Z,2.27
2018-03-22T11:40:00.183Z,2.34
2018-03-22T11:40:59.903Z,2.42
2018-03-22T11:41:59.888Z,2.34
2018-03-22T11:42:59.609Z,2.44
2018-03-22T11:43:59.850Z,2.51
2018-03-22T11:44:59.836Z,2.48
2018-03-22T11:45:59.828Z,2.44
2018-03-22T11:46:59.806Z,2.41
2018-03-22T11:48:00.046Z,2.4
2018-03-22T11:49:00.033Z,2.44
2018-03-22T11:49:59.756Z,2.48
2018-03-22T11:50:59.738Z,2.38
2018-03-22T11:51:59.988Z,2.38
2018-03-22T11:52:59.710Z,2.31
2018-03-22T11:53:59.995Z,2.33
2018-03-22T11:54:59.932Z,2.31
2018-03-22T11:55:59.401Z,2.31
2018-03-22T11:56:59.902Z,2.3
2018-03-22T11:57:59.889Z,2.27
2018-03-22T11:58:59.874Z,2.15
2018-03-22T11:59:59.594Z,2.15
2018-03-22T12:00:59.577Z,2.15
2018-03-22T12:02:00.098Z,2.09
2018-03-22T12:02:59.290Z,2.05
2018-03-22T12:03:59.790Z,2.06
2018-03-22T12:04:59.772Z,2.09
2018-03-22T12:05:59.238Z,2.15
2018-03-22T12:06:59.739Z,2.16
2018-03-22T12:07:59.207Z,2.13
2018-03-22T12:08:59.446Z,2.11
2018-03-22T12:09:59.686Z,2.27
2018-03-22T12:10:59.673Z,2.29
2018-03-22T12:11:59.397Z,2.42
2018-03-22T12:12:59.637Z,2.38
2018-03-22T12:13:59.623Z,2.42
2018-03-22T12:14:59.349Z,2.4
2018-03-22T12:15:59.077Z,2.34
2018-03-22T12:16:59.573Z,2.29
2018-03-22T12:17:59.562Z,2.23
2018-03-22T12:18:59.546Z,2.2
2018-03-22T12:19:59.537Z,2.33
2018-03-22T12:20:59.508Z,2.31
2018-03-22T12:21:59.494Z,2.44
2018-03-22T12:22:59.219Z,2.6
2018-03-22T12:23:59.459Z,2.51
2018-03-22T12:24:59.189Z,2.6
2018-03-22T12:25:59.437Z,2.58
2018-03-22T12:26:59.426Z,2.58
2018-03-22T12:27:59.395Z,2.58
2018-03-22T12:28:59.380Z,2.62
2018-03-22T12:29:59.106Z,2.55
2018-03-22T12:30:59.090Z,2.62
2018-03-22T12:31:59.081Z,2.59
2018-03-22T12:32:59.058Z,2.6
2018-03-22T12:33:59.097Z,2.6
2018-03-22T12:34:59.025Z,2.51
2018-03-22T12:35:59.268Z,2.31
2018-03-22T12:36:59.252Z,2.44
2018-03-22T12:37:58.981Z,2.29
2018-03-22T12:38:58.962Z,2.38
2018-03-22T12:39:59.212Z,2.38
2018-03-22T12:40:58.935Z,2.16
2018-03-22T12:41:58.914Z,2.27
2018-03-22T12:42:58.904Z,2.2
2018-03-22T12:43:59.138Z,2.22
2018-03-22T12:44:59.124Z,2.15
2018-03-22T12:45:58.848Z,2.12
2018-03-22T12:46:58.578Z,2.12
2018-03-22T12:47:58.818Z,2.22
2018-03-22T12:48:58.800Z,2.16
2018-03-22T12:49:58.784Z,2.24
2018-03-22T12:50:58.781Z,2.16
2018-03-22T12:51:59.019Z,2.16
2018-03-22T12:52:58.738Z,2.26
2018-03-22T12:53:58.721Z,2.36
2018-03-22T12:54:58.964Z,2.48
2018-03-22T12:55:58.947Z,2.41
2018-03-22T12:56:58.932Z,2.41
2018-03-22T12:57:58.662Z,2.34
2018-03-22T12:58:58.641Z,2.29
2018-03-22T12:59:58.925Z,2.18
2018-03-22T13:00:58.611Z,2.2
2018-03-22T13:01:58.857Z,2.06
2018-03-22T13:02:58.577Z,1.93
2018-03-22T13:03:58.559Z,1.86
2018-03-22T13:04:58.807Z,1.83
2018-03-22T13:05:58.528Z,1.87
2018-03-22T13:06:58.513Z,1.83